sensor_id;sensor_type;location;lat;lon;timestamp;temperature;humidity
33803;DHT22;20110;53.120;5.786;2022-09-09T00:02:20;12.30;99.90
33803;DHT22;20110;53.120;5.786;2022-09-09T00:07:53;12.20;99.90
33803;DHT22;20110;53.120;5.786;2022-09-09T00:10:31;12.20;99.90
33803;DHT22;20110;53.120;5.786;2022-09-09T00:19:04;12.20;99.90
33803;DHT22;20110;53.120;5.786;2022-09-09T00:21:39;12.10;99.90
33803;DHT22;20110;53.120;5.786;2022-09-09T00:30:12;12.10;99.90
33803;DHT22;20110;53.120;5.786;2022-09-09T00:32:49;12.00;99.90
33803;DHT22;20110;53.120;5.786;2022-09-09T00:35:27;12.00;99.90
33803;DHT22;20110;53.120;5.786;2022-09-09T00:38:01;11.90;99.90
33803;DHT22;20110;53.120;5.786;2022-09-09T00:40:50;11.70;99.90
33803;DHT22;20110;53.120;5.786;2022-09-09T00:43:28;11.70;99.90
33803;DHT22;20110;53.120;5.786;2022-09-09T00:52:12;11.80;99.90
33803;DHT22;20110;53.120;5.786;2022-09-09T00:58:02;11.90;99.90
33803;DHT22;20110;53.120;5.786;2022-09-09T01:03:38;12.00;99.90
33803;DHT22;20110;53.120;5.786;2022-09-09T01:06:31;12.00;99.90
33803;DHT22;20110;53.120;5.786;2022-09-09T01:17:51;12.20;99.90
33803;DHT22;20110;53.120;5.786;2022-09-09T01:20:33;12.20;99.90
33803;DHT22;20110;53.120;5.786;2022-09-09T01:26:04;12.30;99.90
33803;DHT22;20110;53.120;5.786;2022-09-09T01:28:48;12.30;99.90
33803;DHT22;20110;53.120;5.786;2022-09-09T01:31:37;12.30;99.90
33803;DHT22;20110;53.120;5.786;2022-09-09T01:34:12;12.20;99.90
33803;DHT22;20110;53.120;5.786;2022-09-09T01:39:24;12.20;99.90
33803;DHT22;20110;53.120;5.786;2022-09-09T01:41:51;12.20;99.90
33803;DHT22;20110;53.120;5.786;2022-09-09T01:44:19;12.30;99.90
33803;DHT22;20110;53.120;5.786;2022-09-09T01:46:45;12.20;99.90
33803;DHT22;20110;53.120;5.786;2022-09-09T01:49:11;12.30;99.90
33803;DHT22;20110;53.120;5.786;2022-09-09T01:51:38;12.20;99.90
33803;DHT22;20110;53.120;5.786;2022-09-09T01:54:07;12.20;99.90
33803;DHT22;20110;53.120;5.786;2022-09-09T01:56:56;12.20;99.90
33803;DHT22;20110;53.120;5.786;2022-09-09T02:02:30;12.20;99.90
33803;DHT22;20110;53.120;5.786;2022-09-09T02:08:07;12.30;99.90
33803;DHT22;20110;53.120;5.786;2022-09-09T02:13:22;12.30;99.90
33803;DHT22;20110;53.120;5.786;2022-09-09T02:15:52;12.30;99.90
33803;DHT22;20110;53.120;5.786;2022-09-09T02:18:40;12.40;99.90
33803;DHT22;20110;53.120;5.786;2022-09-09T02:21:13;12.30;99.90
33803;DHT22;20110;53.120;5.786;2022-09-09T02:23:41;12.30;99.90
33803;DHT22;20110;53.120;5.786;2022-09-09T02:26:10;12.30;99.90
33803;DHT22;20110;53.120;5.786;2022-09-09T02:28:40;12.30;99.90
33803;DHT22;20110;53.120;5.786;2022-09-09T02:31:07;12.30;99.90
33803;DHT22;20110;53.120;5.786;2022-09-09T02:33:39;12.30;99.90
33803;DHT22;20110;53.120;5.786;2022-09-09T02:36:08;12.30;99.90
33803;DHT22;20110;53.120;5.786;2022-09-09T02:38:42;12.20;99.90
33803;DHT22;20110;53.120;5.786;2022-09-09T02:41:11;12.30;99.90
33803;DHT22;20110;53.120;5.786;2022-09-09T02:43:37;12.20;99.90
33803;DHT22;20110;53.120;5.786;2022-09-09T02:49:28;12.30;99.90
33803;DHT22;20110;53.120;5.786;2022-09-09T02:52:01;12.30;99.90
33803;DHT22;20110;53.120;5.786;2022-09-09T02:54:35;12.40;99.90
33803;DHT22;20110;53.120;5.786;2022-09-09T02:59:53;12.20;99.90
33803;DHT22;20110;53.120;5.786;2022-09-09T03:02:23;12.20;99.90
33803;DHT22;20110;53.120;5.786;2022-09-09T03:04:50;12.10;99.90
33803;DHT22;20110;53.120;5.786;2022-09-09T03:07:20;12.10;99.90
33803;DHT22;20110;53.120;5.786;2022-09-09T03:09:46;12.10;99.90
33803;DHT22;20110;53.120;5.786;2022-09-09T03:12:12;12.20;99.90
33803;DHT22;20110;53.120;5.786;2022-09-09T03:14:38;12.20;99.90
33803;DHT22;20110;53.120;5.786;2022-09-09T03:17:05;12.20;99.90
33803;DHT22;20110;53.120;5.786;2022-09-09T03:19:32;12.20;99.90
33803;DHT22;20110;53.120;5.786;2022-09-09T03:21:58;12.20;99.90
33803;DHT22;20110;53.120;5.786;2022-09-09T03:24:24;12.20;99.90
33803;DHT22;20110;53.120;5.786;2022-09-09T03:26:50;12.20;99.90
33803;DHT22;20110;53.120;5.786;2022-09-09T03:29:16;12.20;99.90
33803;DHT22;20110;53.120;5.786;2022-09-09T03:31:43;12.20;99.90
33803;DHT22;20110;53.120;5.786;2022-09-09T03:34:10;12.20;99.90
33803;DHT22;20110;53.120;5.786;2022-09-09T03:36:36;12.20;99.90
33803;DHT22;20110;53.120;5.786;2022-09-09T03:39:03;12.20;99.90
33803;DHT22;20110;53.120;5.786;2022-09-09T03:41:29;12.20;99.90
33803;DHT22;20110;53.120;5.786;2022-09-09T03:43:56;12.20;99.90
33803;DHT22;20110;53.120;5.786;2022-09-09T03:46:23;12.30;99.90
33803;DHT22;20110;53.120;5.786;2022-09-09T03:48:50;12.30;99.90
33803;DHT22;20110;53.120;5.786;2022-09-09T03:51:18;12.30;99.90
33803;DHT22;20110;53.120;5.786;2022-09-09T03:53:44;12.30;99.90
33803;DHT22;20110;53.120;5.786;2022-09-09T03:56:10;12.30;99.90
33803;DHT22;20110;53.120;5.786;2022-09-09T03:58:37;12.30;99.90
33803;DHT22;20110;53.120;5.786;2022-09-09T04:01:05;12.30;99.90
33803;DHT22;20110;53.120;5.786;2022-09-09T04:03:34;12.30;99.90
33803;DHT22;20110;53.120;5.786;2022-09-09T04:06:01;12.30;99.90
33803;DHT22;20110;53.120;5.786;2022-09-09T04:08:29;12.30;99.90
33803;DHT22;20110;53.120;5.786;2022-09-09T04:10:58;12.30;99.90
33803;DHT22;20110;53.120;5.786;2022-09-09T04:13:26;12.30;99.90
33803;DHT22;20110;53.120;5.786;2022-09-09T04:15:59;12.30;99.90
33803;DHT22;20110;53.120;5.786;2022-09-09T04:18:27;12.40;99.90
33803;DHT22;20110;53.120;5.786;2022-09-09T04:20:56;12.30;99.90
33803;DHT22;20110;53.120;5.786;2022-09-09T04:23:24;12.30;99.90
33803;DHT22;20110;53.120;5.786;2022-09-09T04:25:53;12.30;99.90
33803;DHT22;20110;53.120;5.786;2022-09-09T04:28:22;12.30;99.90
33803;DHT22;20110;53.120;5.786;2022-09-09T04:30:50;12.30;99.90
33803;DHT22;20110;53.120;5.786;2022-09-09T04:33:18;12.30;99.90
33803;DHT22;20110;53.120;5.786;2022-09-09T04:35:49;12.30;99.90
33803;DHT22;20110;53.120;5.786;2022-09-09T04:38:16;12.30;99.90
33803;DHT22;20110;53.120;5.786;2022-09-09T04:40:46;12.20;99.90
33803;DHT22;20110;53.120;5.786;2022-09-09T04:43:13;12.30;99.90
33803;DHT22;20110;53.120;5.786;2022-09-09T04:45:40;12.30;99.90
33803;DHT22;20110;53.120;5.786;2022-09-09T04:48:07;12.30;99.90
33803;DHT22;20110;53.120;5.786;2022-09-09T04:50:35;12.30;99.90
33803;DHT22;20110;53.120;5.786;2022-09-09T04:53:04;12.30;99.90
33803;DHT22;20110;53.120;5.786;2022-09-09T04:55:31;12.30;99.90
33803;DHT22;20110;53.120;5.786;2022-09-09T04:57:57;12.30;99.90
33803;DHT22;20110;53.120;5.786;2022-09-09T05:00:24;12.30;99.90
33803;DHT22;20110;53.120;5.786;2022-09-09T05:02:50;12.30;99.90
33803;DHT22;20110;53.120;5.786;2022-09-09T05:05:16;12.30;99.90
33803;DHT22;20110;53.120;5.786;2022-09-09T05:07:43;12.30;99.90
33803;DHT22;20110;53.120;5.786;2022-09-09T05:10:09;12.30;99.90
33803;DHT22;20110;53.120;5.786;2022-09-09T05:12:35;12.30;99.90
33803;DHT22;20110;53.120;5.786;2022-09-09T05:15:01;12.40;99.90
33803;DHT22;20110;53.120;5.786;2022-09-09T05:17:27;12.40;99.90
33803;DHT22;20110;53.120;5.786;2022-09-09T05:19:54;12.50;99.90
33803;DHT22;20110;53.120;5.786;2022-09-09T05:22:20;12.40;99.90
33803;DHT22;20110;53.120;5.786;2022-09-09T05:24:46;12.40;99.90
33803;DHT22;20110;53.120;5.786;2022-09-09T05:27:13;12.40;99.90
33803;DHT22;20110;53.120;5.786;2022-09-09T05:29:39;12.40;99.90
33803;DHT22;20110;53.120;5.786;2022-09-09T05:32:07;12.40;99.90
33803;DHT22;20110;53.120;5.786;2022-09-09T05:34:35;12.40;99.90
33803;DHT22;20110;53.120;5.786;2022-09-09T05:37:02;12.30;99.90
33803;DHT22;20110;53.120;5.786;2022-09-09T05:39:29;12.40;99.90
33803;DHT22;20110;53.120;5.786;2022-09-09T05:41:55;12.40;99.90
33803;DHT22;20110;53.120;5.786;2022-09-09T05:44:21;12.40;99.90
33803;DHT22;20110;53.120;5.786;2022-09-09T05:46:48;12.40;99.90
33803;DHT22;20110;53.120;5.786;2022-09-09T05:49:14;12.40;99.90
33803;DHT22;20110;53.120;5.786;2022-09-09T05:51:41;12.40;99.90
33803;DHT22;20110;53.120;5.786;2022-09-09T05:54:08;12.40;99.90
33803;DHT22;20110;53.120;5.786;2022-09-09T05:56:34;12.40;99.90
33803;DHT22;20110;53.120;5.786;2022-09-09T05:59:08;12.40;99.90
33803;DHT22;20110;53.120;5.786;2022-09-09T06:01:36;12.50;99.90
33803;DHT22;20110;53.120;5.786;2022-09-09T06:04:06;12.50;99.90
33803;DHT22;20110;53.120;5.786;2022-09-09T06:06:34;12.50;99.90
33803;DHT22;20110;53.120;5.786;2022-09-09T06:09:03;12.60;99.90
33803;DHT22;20110;53.120;5.786;2022-09-09T06:11:36;12.60;99.90
33803;DHT22;20110;53.120;5.786;2022-09-09T06:14:04;12.60;99.90
33803;DHT22;20110;53.120;5.786;2022-09-09T06:16:31;12.60;99.90
33803;DHT22;20110;53.120;5.786;2022-09-09T06:18:58;12.60;99.90
33803;DHT22;20110;53.120;5.786;2022-09-09T06:21:33;12.60;99.90
33803;DHT22;20110;53.120;5.786;2022-09-09T06:24:02;12.70;99.90
33803;DHT22;20110;53.120;5.786;2022-09-09T06:26:37;12.70;99.90
33803;DHT22;20110;53.120;5.786;2022-09-09T06:29:07;12.70;99.90
33803;DHT22;20110;53.120;5.786;2022-09-09T06:31:34;12.70;99.90
33803;DHT22;20110;53.120;5.786;2022-09-09T06:34:04;12.70;99.90
33803;DHT22;20110;53.120;5.786;2022-09-09T06:36:34;12.80;99.90
33803;DHT22;20110;53.120;5.786;2022-09-09T06:39:03;12.90;99.90
33803;DHT22;20110;53.120;5.786;2022-09-09T06:41:31;12.80;99.90
33803;DHT22;20110;53.120;5.786;2022-09-09T06:43:58;12.90;99.90
33803;DHT22;20110;53.120;5.786;2022-09-09T06:48:00;12.80;99.90
33803;DHT22;20110;53.120;5.786;2022-09-09T06:54:01;12.80;99.90
33803;DHT22;20110;53.120;5.786;2022-09-09T07:01:14;12.80;99.90
33803;DHT22;20110;53.120;5.786;2022-09-09T07:03:41;12.70;99.90
33803;DHT22;20110;53.120;5.786;2022-09-09T07:06:09;12.80;99.90
33803;DHT22;20110;53.120;5.786;2022-09-09T07:08:39;12.80;99.90
33803;DHT22;20110;53.120;5.786;2022-09-09T07:11:07;12.80;99.90
33803;DHT22;20110;53.120;5.786;2022-09-09T07:13:33;12.90;99.90
33803;DHT22;20110;53.120;5.786;2022-09-09T07:16:10;12.90;99.90
33803;DHT22;20110;53.120;5.786;2022-09-09T07:18:36;13.00;99.90
33803;DHT22;20110;53.120;5.786;2022-09-09T07:21:02;13.00;99.90
33803;DHT22;20110;53.120;5.786;2022-09-09T07:23:29;13.00;99.90
33803;DHT22;20110;53.120;5.786;2022-09-09T07:25:56;13.10;99.90
33803;DHT22;20110;53.120;5.786;2022-09-09T07:28:23;13.10;99.90
33803;DHT22;20110;53.120;5.786;2022-09-09T07:30:54;13.20;99.90
33803;DHT22;20110;53.120;5.786;2022-09-09T07:33:19;13.30;99.90
33803;DHT22;20110;53.120;5.786;2022-09-09T07:35:45;13.40;99.90
33803;DHT22;20110;53.120;5.786;2022-09-09T07:38:11;13.30;99.90
33803;DHT22;20110;53.120;5.786;2022-09-09T07:40:37;13.30;99.90
33803;DHT22;20110;53.120;5.786;2022-09-09T07:43:03;13.40;99.90
33803;DHT22;20110;53.120;5.786;2022-09-09T07:45:29;13.50;99.90
33803;DHT22;20110;53.120;5.786;2022-09-09T07:47:58;13.50;99.90
33803;DHT22;20110;53.120;5.786;2022-09-09T07:50:24;13.70;99.90
33803;DHT22;20110;53.120;5.786;2022-09-09T07:52:51;13.70;99.90
33803;DHT22;20110;53.120;5.786;2022-09-09T07:55:17;13.80;99.90
33803;DHT22;20110;53.120;5.786;2022-09-09T07:57:43;13.80;99.90
33803;DHT22;20110;53.120;5.786;2022-09-09T08:00:10;14.10;99.90
33803;DHT22;20110;53.120;5.786;2022-09-09T08:02:36;14.30;99.90
33803;DHT22;20110;53.120;5.786;2022-09-09T08:05:02;14.20;99.90
33803;DHT22;20110;53.120;5.786;2022-09-09T08:07:27;14.30;99.90
33803;DHT22;20110;53.120;5.786;2022-09-09T08:11:24;14.50;99.90
33803;DHT22;20110;53.120;5.786;2022-09-09T08:13:52;14.60;99.90
33803;DHT22;20110;53.120;5.786;2022-09-09T08:16:21;14.60;99.90
33803;DHT22;20110;53.120;5.786;2022-09-09T08:18:49;14.60;99.90
33803;DHT22;20110;53.120;5.786;2022-09-09T08:21:21;14.60;99.90
33803;DHT22;20110;53.120;5.786;2022-09-09T08:23:51;15.00;99.90
33803;DHT22;20110;53.120;5.786;2022-09-09T08:26:20;15.00;99.90
33803;DHT22;20110;53.120;5.786;2022-09-09T08:28:49;14.90;99.90
33803;DHT22;20110;53.120;5.786;2022-09-09T08:31:19;15.10;99.90
33803;DHT22;20110;53.120;5.786;2022-09-09T08:33:47;15.40;99.90
33803;DHT22;20110;53.120;5.786;2022-09-09T08:36:15;15.10;99.90
33803;DHT22;20110;53.120;5.786;2022-09-09T08:38:43;15.10;99.90
33803;DHT22;20110;53.120;5.786;2022-09-09T08:41:30;15.30;99.90
33803;DHT22;20110;53.120;5.786;2022-09-09T08:44:20;15.40;99.90
33803;DHT22;20110;53.120;5.786;2022-09-09T08:55:56;15.50;99.90
33803;DHT22;20110;53.120;5.786;2022-09-09T08:58:33;15.70;99.90
33803;DHT22;20110;53.120;5.786;2022-09-09T09:06:41;15.40;99.90
33803;DHT22;20110;53.120;5.786;2022-09-09T09:12:32;15.40;99.90
33803;DHT22;20110;53.120;5.786;2022-09-09T09:15:16;15.30;99.90
33803;DHT22;20110;53.120;5.786;2022-09-09T09:17:46;15.50;99.90
33803;DHT22;20110;53.120;5.786;2022-09-09T09:20:15;15.30;99.90
33803;DHT22;20110;53.120;5.786;2022-09-09T09:22:52;15.50;99.90
33803;DHT22;20110;53.120;5.786;2022-09-09T09:25:31;15.30;99.90
33803;DHT22;20110;53.120;5.786;2022-09-09T09:28:15;15.60;99.90
33803;DHT22;20110;53.120;5.786;2022-09-09T09:36:04;16.00;99.90
33803;DHT22;20110;53.120;5.786;2022-09-09T09:38:35;16.20;99.90
33803;DHT22;20110;53.120;5.786;2022-09-09T09:41:02;16.20;99.90
33803;DHT22;20110;53.120;5.786;2022-09-09T09:43:34;16.20;99.90
33803;DHT22;20110;53.120;5.786;2022-09-09T09:46:03;16.30;99.90
33803;DHT22;20110;53.120;5.786;2022-09-09T09:48:29;16.20;99.90
33803;DHT22;20110;53.120;5.786;2022-09-09T09:51:02;16.00;99.90
33803;DHT22;20110;53.120;5.786;2022-09-09T09:53:37;16.10;99.90
33803;DHT22;20110;53.120;5.786;2022-09-09T10:03:55;16.00;99.90
33803;DHT22;20110;53.120;5.786;2022-09-09T10:06:35;16.20;99.90
33803;DHT22;20110;53.120;5.786;2022-09-09T10:09:17;16.30;99.90
33803;DHT22;20110;53.120;5.786;2022-09-09T10:12:05;16.30;99.90
33803;DHT22;20110;53.120;5.786;2022-09-09T10:20:11;16.50;99.90
33803;DHT22;20110;53.120;5.786;2022-09-09T10:23:41;16.60;99.90
33803;DHT22;20110;53.120;5.786;2022-09-09T10:32:48;17.20;99.90
33803;DHT22;20110;53.120;5.786;2022-09-09T10:38:42;17.20;99.90
33803;DHT22;20110;53.120;5.786;2022-09-09T10:50:50;17.60;99.90
33803;DHT22;20110;53.120;5.786;2022-09-09T10:56:09;18.20;99.90
33803;DHT22;20110;53.120;5.786;2022-09-09T10:58:40;18.20;99.90
33803;DHT22;20110;53.120;5.786;2022-09-09T11:01:25;18.20;99.90
33803;DHT22;20110;53.120;5.786;2022-09-09T11:04:05;17.80;99.90
33803;DHT22;20110;53.120;5.786;2022-09-09T11:06:48;17.40;99.90
33803;DHT22;20110;53.120;5.786;2022-09-09T11:09:22;17.30;99.90
33803;DHT22;20110;53.120;5.786;2022-09-09T11:11:59;17.40;99.90
33803;DHT22;20110;53.120;5.786;2022-09-09T11:14:35;17.50;99.90
33803;DHT22;20110;53.120;5.786;2022-09-09T11:17:12;17.70;99.90
33803;DHT22;20110;53.120;5.786;2022-09-09T11:19:43;17.40;99.90
33803;DHT22;20110;53.120;5.786;2022-09-09T11:25:05;17.60;99.90
33803;DHT22;20110;53.120;5.786;2022-09-09T11:27:53;17.50;99.90
33803;DHT22;20110;53.120;5.786;2022-09-09T11:30:46;17.60;99.90
33803;DHT22;20110;53.120;5.786;2022-09-09T11:40:17;18.30;99.90
33803;DHT22;20110;53.120;5.786;2022-09-09T11:42:48;18.10;99.90
33803;DHT22;20110;53.120;5.786;2022-09-09T11:45:36;18.20;99.90
33803;DHT22;20110;53.120;5.786;2022-09-09T11:48:03;18.60;99.90
33803;DHT22;20110;53.120;5.786;2022-09-09T11:50:36;19.30;99.90
33803;DHT22;20110;53.120;5.786;2022-09-09T11:53:23;19.20;99.90
33803;DHT22;20110;53.120;5.786;2022-09-09T11:56:10;18.80;99.90
33803;DHT22;20110;53.120;5.786;2022-09-09T11:58:41;18.10;99.90
33803;DHT22;20110;53.120;5.786;2022-09-09T12:01:30;17.80;99.90
33803;DHT22;20110;53.120;5.786;2022-09-09T12:06:57;17.30;99.90
33803;DHT22;20110;53.120;5.786;2022-09-09T12:17:29;17.40;99.90
33803;DHT22;20110;53.120;5.786;2022-09-09T12:20:17;17.90;99.90
33803;DHT22;20110;53.120;5.786;2022-09-09T12:23:13;18.10;99.90
33803;DHT22;20110;53.120;5.786;2022-09-09T12:34:52;17.80;99.90
33803;DHT22;20110;53.120;5.786;2022-09-09T12:37:38;17.80;99.90
33803;DHT22;20110;53.120;5.786;2022-09-09T12:42:46;17.60;99.90
33803;DHT22;20110;53.120;5.786;2022-09-09T12:45:23;18.30;99.90
33803;DHT22;20110;53.120;5.786;2022-09-09T12:50:43;18.60;99.90
33803;DHT22;20110;53.120;5.786;2022-09-09T12:53:27;18.80;99.90
33803;DHT22;20110;53.120;5.786;2022-09-09T12:56:00;19.20;99.90
33803;DHT22;20110;53.120;5.786;2022-09-09T12:58:29;18.70;99.90
33803;DHT22;20110;53.120;5.786;2022-09-09T13:00:59;18.30;99.90
33803;DHT22;20110;53.120;5.786;2022-09-09T13:03:26;18.20;99.90
33803;DHT22;20110;53.120;5.786;2022-09-09T13:05:53;18.20;99.90
33803;DHT22;20110;53.120;5.786;2022-09-09T13:08:26;18.30;99.90
33803;DHT22;20110;53.120;5.786;2022-09-09T13:11:04;17.90;99.90
33803;DHT22;20110;53.120;5.786;2022-09-09T13:13:40;18.00;99.90
33803;DHT22;20110;53.120;5.786;2022-09-09T13:16:23;18.40;99.90
33803;DHT22;20110;53.120;5.786;2022-09-09T13:18:53;18.40;99.90
33803;DHT22;20110;53.120;5.786;2022-09-09T13:21:19;18.80;99.90
33803;DHT22;20110;53.120;5.786;2022-09-09T13:23:49;18.70;99.90
33803;DHT22;20110;53.120;5.786;2022-09-09T13:26:21;18.10;99.90
33803;DHT22;20110;53.120;5.786;2022-09-09T13:28:48;17.60;99.90
33803;DHT22;20110;53.120;5.786;2022-09-09T13:31:30;17.40;99.90
33803;DHT22;20110;53.120;5.786;2022-09-09T13:33:59;16.70;99.90
33803;DHT22;20110;53.120;5.786;2022-09-09T13:36:35;16.00;99.90
33803;DHT22;20110;53.120;5.786;2022-09-09T13:39:03;15.90;99.90
33803;DHT22;20110;53.120;5.786;2022-09-09T13:41:31;16.10;99.90
33803;DHT22;20110;53.120;5.786;2022-09-09T13:44:00;16.20;99.90
33803;DHT22;20110;53.120;5.786;2022-09-09T13:46:42;16.50;99.90
33803;DHT22;20110;53.120;5.786;2022-09-09T13:54:11;17.70;99.90
33803;DHT22;20110;53.120;5.786;2022-09-09T13:56:39;17.60;99.90
33803;DHT22;20110;53.120;5.786;2022-09-09T13:59:10;17.30;99.90
33803;DHT22;20110;53.120;5.786;2022-09-09T14:01:37;17.70;99.90
33803;DHT22;20110;53.120;5.786;2022-09-09T14:04:04;17.50;99.90
33803;DHT22;20110;53.120;5.786;2022-09-09T14:06:32;17.50;99.90
33803;DHT22;20110;53.120;5.786;2022-09-09T14:09:00;17.70;99.90
33803;DHT22;20110;53.120;5.786;2022-09-09T14:11:26;18.10;99.90
33803;DHT22;20110;53.120;5.786;2022-09-09T14:13:52;18.10;99.90
33803;DHT22;20110;53.120;5.786;2022-09-09T14:16:18;18.50;99.90
33803;DHT22;20110;53.120;5.786;2022-09-09T14:18:45;18.80;99.90
33803;DHT22;20110;53.120;5.786;2022-09-09T14:21:11;19.10;99.90
33803;DHT22;20110;53.120;5.786;2022-09-09T14:23:38;19.20;99.90
33803;DHT22;20110;53.120;5.786;2022-09-09T14:26:08;18.40;99.90
33803;DHT22;20110;53.120;5.786;2022-09-09T14:28:35;18.20;99.90
33803;DHT22;20110;53.120;5.786;2022-09-09T14:31:03;17.80;99.90
33803;DHT22;20110;53.120;5.786;2022-09-09T14:33:29;17.60;99.90
33803;DHT22;20110;53.120;5.786;2022-09-09T14:36:00;17.40;99.90
33803;DHT22;20110;53.120;5.786;2022-09-09T14:38:34;17.30;99.90
33803;DHT22;20110;53.120;5.786;2022-09-09T14:41:06;17.10;99.90
33803;DHT22;20110;53.120;5.786;2022-09-09T14:43:32;17.20;99.90
33803;DHT22;20110;53.120;5.786;2022-09-09T14:46:12;17.10;99.90
33803;DHT22;20110;53.120;5.786;2022-09-09T14:48:42;16.80;99.90
33803;DHT22;20110;53.120;5.786;2022-09-09T14:51:28;16.20;99.90
33803;DHT22;20110;53.120;5.786;2022-09-09T14:53:56;15.60;99.90
33803;DHT22;20110;53.120;5.786;2022-09-09T14:56:28;15.40;99.90
33803;DHT22;20110;53.120;5.786;2022-09-09T14:58:56;15.50;99.90
33803;DHT22;20110;53.120;5.786;2022-09-09T15:01:25;15.60;99.90
33803;DHT22;20110;53.120;5.786;2022-09-09T15:04:02;15.70;99.90
33803;DHT22;20110;53.120;5.786;2022-09-09T15:06:31;15.80;99.90
33803;DHT22;20110;53.120;5.786;2022-09-09T15:08:59;15.80;99.90
33803;DHT22;20110;53.120;5.786;2022-09-09T15:11:27;15.80;99.90
33803;DHT22;20110;53.120;5.786;2022-09-09T15:13:56;15.70;99.90
33803;DHT22;20110;53.120;5.786;2022-09-09T15:16:25;15.50;99.90
33803;DHT22;20110;53.120;5.786;2022-09-09T15:18:54;15.30;99.90
33803;DHT22;20110;53.120;5.786;2022-09-09T15:21:24;15.00;99.90
33803;DHT22;20110;53.120;5.786;2022-09-09T15:23:55;15.00;99.90
33803;DHT22;20110;53.120;5.786;2022-09-09T15:26:22;15.00;99.90
33803;DHT22;20110;53.120;5.786;2022-09-09T15:28:49;14.70;99.90
33803;DHT22;20110;53.120;5.786;2022-09-09T15:31:24;14.70;99.90
33803;DHT22;20110;53.120;5.786;2022-09-09T15:33:53;14.70;99.90
33803;DHT22;20110;53.120;5.786;2022-09-09T15:36:28;14.70;99.90
33803;DHT22;20110;53.120;5.786;2022-09-09T15:38:57;14.70;99.90
33803;DHT22;20110;53.120;5.786;2022-09-09T15:41:25;14.80;99.90
33803;DHT22;20110;53.120;5.786;2022-09-09T15:43:52;14.90;99.90
33803;DHT22;20110;53.120;5.786;2022-09-09T15:46:30;14.90;99.90
33803;DHT22;20110;53.120;5.786;2022-09-09T15:49:12;15.00;99.90
33803;DHT22;20110;53.120;5.786;2022-09-09T15:51:42;15.10;99.90
33803;DHT22;20110;53.120;5.786;2022-09-09T15:54:17;15.20;99.90
33803;DHT22;20110;53.120;5.786;2022-09-09T15:56:45;15.20;99.90
33803;DHT22;20110;53.120;5.786;2022-09-09T15:59:14;15.20;99.90
33803;DHT22;20110;53.120;5.786;2022-09-09T16:01:40;15.30;99.90
33803;DHT22;20110;53.120;5.786;2022-09-09T16:04:07;15.40;99.90
33803;DHT22;20110;53.120;5.786;2022-09-09T16:06:33;15.20;99.90
33803;DHT22;20110;53.120;5.786;2022-09-09T16:09:00;15.30;99.90
33803;DHT22;20110;53.120;5.786;2022-09-09T16:11:34;15.30;99.90
33803;DHT22;20110;53.120;5.786;2022-09-09T16:14:01;15.50;99.90
33803;DHT22;20110;53.120;5.786;2022-09-09T16:16:29;15.40;99.90
33803;DHT22;20110;53.120;5.786;2022-09-09T16:19:00;15.50;99.90
33803;DHT22;20110;53.120;5.786;2022-09-09T16:21:34;15.50;99.90
33803;DHT22;20110;53.120;5.786;2022-09-09T16:24:16;15.40;99.90
33803;DHT22;20110;53.120;5.786;2022-09-09T16:26:46;15.50;99.90
33803;DHT22;20110;53.120;5.786;2022-09-09T16:29:14;15.60;99.90
33803;DHT22;20110;53.120;5.786;2022-09-09T16:31:42;15.60;99.90
33803;DHT22;20110;53.120;5.786;2022-09-09T16:34:09;15.70;99.90
33803;DHT22;20110;53.120;5.786;2022-09-09T16:36:37;15.70;99.90
33803;DHT22;20110;53.120;5.786;2022-09-09T16:39:06;15.60;99.90
33803;DHT22;20110;53.120;5.786;2022-09-09T16:41:35;15.70;99.90
33803;DHT22;20110;53.120;5.786;2022-09-09T16:44:04;15.80;99.90
33803;DHT22;20110;53.120;5.786;2022-09-09T16:46:33;15.80;99.90
33803;DHT22;20110;53.120;5.786;2022-09-09T16:49:02;15.70;99.90
33803;DHT22;20110;53.120;5.786;2022-09-09T16:51:38;15.30;99.90
33803;DHT22;20110;53.120;5.786;2022-09-09T16:54:07;15.10;99.90
33803;DHT22;20110;53.120;5.786;2022-09-09T16:56:37;14.70;99.90
33803;DHT22;20110;53.120;5.786;2022-09-09T16:59:09;14.50;99.90
33803;DHT22;20110;53.120;5.786;2022-09-09T17:01:43;14.50;99.90
33803;DHT22;20110;53.120;5.786;2022-09-09T17:04:13;14.50;99.90
33803;DHT22;20110;53.120;5.786;2022-09-09T17:06:41;14.50;99.90
33803;DHT22;20110;53.120;5.786;2022-09-09T17:09:11;14.50;99.90
33803;DHT22;20110;53.120;5.786;2022-09-09T17:11:39;14.50;99.90
33803;DHT22;20110;53.120;5.786;2022-09-09T17:14:05;14.50;99.90
33803;DHT22;20110;53.120;5.786;2022-09-09T17:16:34;14.50;99.90
33803;DHT22;20110;53.120;5.786;2022-09-09T17:19:01;14.50;99.90
33803;DHT22;20110;53.120;5.786;2022-09-09T17:21:29;14.60;99.90
33803;DHT22;20110;53.120;5.786;2022-09-09T17:23:57;14.70;99.90
33803;DHT22;20110;53.120;5.786;2022-09-09T17:26:26;14.70;99.90
33803;DHT22;20110;53.120;5.786;2022-09-09T17:28:55;14.70;99.90
33803;DHT22;20110;53.120;5.786;2022-09-09T17:31:24;14.70;99.90
33803;DHT22;20110;53.120;5.786;2022-09-09T17:33:51;14.90;99.90
33803;DHT22;20110;53.120;5.786;2022-09-09T17:36:24;14.90;99.90
33803;DHT22;20110;53.120;5.786;2022-09-09T17:38:50;14.90;99.90
33803;DHT22;20110;53.120;5.786;2022-09-09T17:41:27;14.90;99.90
33803;DHT22;20110;53.120;5.786;2022-09-09T17:43:58;15.00;99.90
33803;DHT22;20110;53.120;5.786;2022-09-09T17:46:29;14.90;99.90
33803;DHT22;20110;53.120;5.786;2022-09-09T17:48:59;14.90;99.90
33803;DHT22;20110;53.120;5.786;2022-09-09T17:51:28;14.80;99.90
33803;DHT22;20110;53.120;5.786;2022-09-09T17:53:59;14.80;99.90
33803;DHT22;20110;53.120;5.786;2022-09-09T17:56:29;14.70;99.90
33803;DHT22;20110;53.120;5.786;2022-09-09T17:58:56;14.70;99.90
33803;DHT22;20110;53.120;5.786;2022-09-09T18:01:28;14.70;99.90
33803;DHT22;20110;53.120;5.786;2022-09-09T18:03:58;14.60;99.90
33803;DHT22;20110;53.120;5.786;2022-09-09T18:06:28;14.50;99.90
33803;DHT22;20110;53.120;5.786;2022-09-09T18:08:59;14.50;99.90
33803;DHT22;20110;53.120;5.786;2022-09-09T18:11:29;14.40;99.90
33803;DHT22;20110;53.120;5.786;2022-09-09T18:14:00;14.40;99.90
33803;DHT22;20110;53.120;5.786;2022-09-09T18:16:30;14.30;99.90
33803;DHT22;20110;53.120;5.786;2022-09-09T18:19:00;14.40;99.90
33803;DHT22;20110;53.120;5.786;2022-09-09T18:21:29;14.30;99.90
33803;DHT22;20110;53.120;5.786;2022-09-09T18:23:59;14.30;99.90
33803;DHT22;20110;53.120;5.786;2022-09-09T18:26:27;14.30;99.90
33803;DHT22;20110;53.120;5.786;2022-09-09T18:28:55;14.30;99.90
33803;DHT22;20110;53.120;5.786;2022-09-09T18:31:25;14.30;99.90
33803;DHT22;20110;53.120;5.786;2022-09-09T18:33:54;14.30;99.90
33803;DHT22;20110;53.120;5.786;2022-09-09T18:36:23;14.30;99.90
33803;DHT22;20110;53.120;5.786;2022-09-09T18:39:13;14.40;99.90
33803;DHT22;20110;53.120;5.786;2022-09-09T18:41:49;14.40;99.90